sensor_id;sensor_type;location;lat;lon;timestamp;temperature;humidity
31765;DHT22;18338;53.240;8.798;2023-03-19T00:00:41;8.10;99.90
31765;DHT22;18338;53.240;8.798;2023-03-19T00:03:08;8.10;99.90
31765;DHT22;18338;53.240;8.798;2023-03-19T00:05:35;8.30;99.90
31765;DHT22;18338;53.240;8.798;2023-03-19T00:08:01;8.30;99.90
31765;DHT22;18338;53.240;8.798;2023-03-19T00:10:28;8.50;99.90
31765;DHT22;18338;53.240;8.798;2023-03-19T00:12:55;8.60;99.90
31765;DHT22;18338;53.240;8.798;2023-03-19T00:15:21;8.70;99.90
31765;DHT22;18338;53.240;8.798;2023-03-19T00:17:48;8.70;99.90
31765;DHT22;18338;53.240;8.798;2023-03-19T00:20:15;8.70;99.90
31765;DHT22;18338;53.240;8.798;2023-03-19T00:22:43;8.70;99.90
31765;DHT22;18338;53.240;8.798;2023-03-19T00:25:10;8.70;99.90
31765;DHT22;18338;53.240;8.798;2023-03-19T00:27:37;8.60;99.90
31765;DHT22;18338;53.240;8.798;2023-03-19T00:30:05;8.60;99.90
31765;DHT22;18338;53.240;8.798;2023-03-19T00:32:34;8.50;99.90
31765;DHT22;18338;53.240;8.798;2023-03-19T00:35:03;8.50;99.90
31765;DHT22;18338;53.240;8.798;2023-03-19T00:37:33;8.50;99.90
31765;DHT22;18338;53.240;8.798;2023-03-19T00:40:00;8.50;99.90
31765;DHT22;18338;53.240;8.798;2023-03-19T00:42:28;8.40;99.90
31765;DHT22;18338;53.240;8.798;2023-03-19T00:44:55;8.50;99.90
31765;DHT22;18338;53.240;8.798;2023-03-19T00:47:24;8.60;99.90
31765;DHT22;18338;53.240;8.798;2023-03-19T00:49:51;8.60;99.90
31765;DHT22;18338;53.240;8.798;2023-03-19T00:52:17;8.50;99.90
31765;DHT22;18338;53.240;8.798;2023-03-19T00:54:44;8.60;99.90
31765;DHT22;18338;53.240;8.798;2023-03-19T00:57:11;8.60;99.90
31765;DHT22;18338;53.240;8.798;2023-03-19T00:59:38;8.40;99.90
31765;DHT22;18338;53.240;8.798;2023-03-19T01:02:04;8.20;99.90
31765;DHT22;18338;53.240;8.798;2023-03-19T01:04:31;8.10;99.90
31765;DHT22;18338;53.240;8.798;2023-03-19T01:06:58;8.10;99.90
31765;DHT22;18338;53.240;8.798;2023-03-19T01:09:28;8.10;99.90
31765;DHT22;18338;53.240;8.798;2023-03-19T01:11:55;8.20;99.90
31765;DHT22;18338;53.240;8.798;2023-03-19T01:14:22;8.10;99.90
31765;DHT22;18338;53.240;8.798;2023-03-19T01:16:49;8.00;99.90
31765;DHT22;18338;53.240;8.798;2023-03-19T01:19:15;8.00;99.90
31765;DHT22;18338;53.240;8.798;2023-03-19T01:21:43;7.90;99.90
31765;DHT22;18338;53.240;8.798;2023-03-19T01:24:12;7.80;99.90
31765;DHT22;18338;53.240;8.798;2023-03-19T01:26:39;7.80;99.90
31765;DHT22;18338;53.240;8.798;2023-03-19T01:29:07;7.90;99.90
31765;DHT22;18338;53.240;8.798;2023-03-19T01:31:34;7.80;99.90
31765;DHT22;18338;53.240;8.798;2023-03-19T01:34:04;8.00;99.90
31765;DHT22;18338;53.240;8.798;2023-03-19T01:36:31;8.10;99.90
31765;DHT22;18338;53.240;8.798;2023-03-19T01:38:59;8.10;99.90
31765;DHT22;18338;53.240;8.798;2023-03-19T01:41:26;8.10;99.90
31765;DHT22;18338;53.240;8.798;2023-03-19T01:43:53;8.20;99.90
31765;DHT22;18338;53.240;8.798;2023-03-19T01:49:20;8.30;99.90
31765;DHT22;18338;53.240;8.798;2023-03-19T01:51:48;8.40;99.90
31765;DHT22;18338;53.240;8.798;2023-03-19T01:54:19;8.50;99.90
31765;DHT22;18338;53.240;8.798;2023-03-19T01:56:51;8.60;99.90
31765;DHT22;18338;53.240;8.798;2023-03-19T01:59:27;8.70;99.90
31765;DHT22;18338;53.240;8.798;2023-03-19T02:01:58;8.80;99.90
31765;DHT22;18338;53.240;8.798;2023-03-19T02:04:28;8.80;99.90
31765;DHT22;18338;53.240;8.798;2023-03-19T02:06:58;8.90;99.90
31765;DHT22;18338;53.240;8.798;2023-03-19T02:09:27;8.90;99.90
31765;DHT22;18338;53.240;8.798;2023-03-19T02:11:55;9.00;99.90
31765;DHT22;18338;53.240;8.798;2023-03-19T02:14:22;9.10;99.90
31765;DHT22;18338;53.240;8.798;2023-03-19T02:16:49;9.10;99.90
31765;DHT22;18338;53.240;8.798;2023-03-19T02:19:23;9.10;99.90
31765;DHT22;18338;53.240;8.798;2023-03-19T02:21:51;9.10;99.90
31765;DHT22;18338;53.240;8.798;2023-03-19T02:24:27;9.10;99.90
31765;DHT22;18338;53.240;8.798;2023-03-19T02:26:56;9.10;99.90
31765;DHT22;18338;53.240;8.798;2023-03-19T02:29:23;9.10;99.90
31765;DHT22;18338;53.240;8.798;2023-03-19T02:31:49;9.20;99.90
31765;DHT22;18338;53.240;8.798;2023-03-19T02:36:52;9.20;99.90
31765;DHT22;18338;53.240;8.798;2023-03-19T02:39:30;9.10;99.90
31765;DHT22;18338;53.240;8.798;2023-03-19T02:42:01;9.10;99.90
31765;DHT22;18338;53.240;8.798;2023-03-19T02:44:30;9.10;99.90
31765;DHT22;18338;53.240;8.798;2023-03-19T02:46:57;9.20;99.90
31765;DHT22;18338;53.240;8.798;2023-03-19T02:49:24;9.20;99.90
31765;DHT22;18338;53.240;8.798;2023-03-19T02:51:51;9.20;99.90
31765;DHT22;18338;53.240;8.798;2023-03-19T02:54:18;9.20;99.90
31765;DHT22;18338;53.240;8.798;2023-03-19T02:56:45;9.20;99.90
31765;DHT22;18338;53.240;8.798;2023-03-19T02:59:15;9.20;99.90
31765;DHT22;18338;53.240;8.798;2023-03-19T03:01:41;9.20;99.90
31765;DHT22;18338;53.240;8.798;2023-03-19T03:04:08;9.20;99.90
31765;DHT22;18338;53.240;8.798;2023-03-19T03:06:35;9.10;99.90
31765;DHT22;18338;53.240;8.798;2023-03-19T03:09:02;9.10;99.90
31765;DHT22;18338;53.240;8.798;2023-03-19T03:11:29;9.10;99.90
31765;DHT22;18338;53.240;8.798;2023-03-19T03:13:56;9.00;99.90
31765;DHT22;18338;53.240;8.798;2023-03-19T03:16:24;9.00;99.90
31765;DHT22;18338;53.240;8.798;2023-03-19T03:18:51;8.90;99.90
31765;DHT22;18338;53.240;8.798;2023-03-19T03:21:19;8.90;99.90
31765;DHT22;18338;53.240;8.798;2023-03-19T03:23:47;8.90;99.90
31765;DHT22;18338;53.240;8.798;2023-03-19T03:26:14;8.90;99.90
31765;DHT22;18338;53.240;8.798;2023-03-19T03:28:40;9.00;99.90
31765;DHT22;18338;53.240;8.798;2023-03-19T03:31:08;9.00;99.90
31765;DHT22;18338;53.240;8.798;2023-03-19T03:33:37;8.90;99.90
31765;DHT22;18338;53.240;8.798;2023-03-19T03:36:04;9.00;99.90
31765;DHT22;18338;53.240;8.798;2023-03-19T03:38:31;9.00;99.90
31765;DHT22;18338;53.240;8.798;2023-03-19T03:40:59;9.10;99.90
31765;DHT22;18338;53.240;8.798;2023-03-19T03:43:26;9.10;99.90
31765;DHT22;18338;53.240;8.798;2023-03-19T03:45:53;9.10;99.90
31765;DHT22;18338;53.240;8.798;2023-03-19T03:48:20;9.00;99.90
31765;DHT22;18338;53.240;8.798;2023-03-19T03:50:47;9.00;99.90
31765;DHT22;18338;53.240;8.798;2023-03-19T03:53:14;9.10;99.90
31765;DHT22;18338;53.240;8.798;2023-03-19T03:55:42;9.10;99.90
31765;DHT22;18338;53.240;8.798;2023-03-19T03:58:09;9.10;99.90
31765;DHT22;18338;53.240;8.798;2023-03-19T04:00:35;9.10;99.90
31765;DHT22;18338;53.240;8.798;2023-03-19T04:03:02;9.10;99.90
31765;DHT22;18338;53.240;8.798;2023-03-19T04:05:29;9.10;99.90
31765;DHT22;18338;53.240;8.798;2023-03-19T04:07:56;9.10;99.90
31765;DHT22;18338;53.240;8.798;2023-03-19T04:10:23;9.00;99.90
31765;DHT22;18338;53.240;8.798;2023-03-19T04:12:51;9.00;99.90
31765;DHT22;18338;53.240;8.798;2023-03-19T04:15:18;9.00;99.90
31765;DHT22;18338;53.240;8.798;2023-03-19T04:17:45;9.00;99.90
31765;DHT22;18338;53.240;8.798;2023-03-19T04:20:12;9.00;99.90
31765;DHT22;18338;53.240;8.798;2023-03-19T04:22:41;9.00;99.90
31765;DHT22;18338;53.240;8.798;2023-03-19T04:25:08;9.10;99.90
31765;DHT22;18338;53.240;8.798;2023-03-19T04:27:36;9.10;99.90
31765;DHT22;18338;53.240;8.798;2023-03-19T04:30:03;9.00;99.90
31765;DHT22;18338;53.240;8.798;2023-03-19T04:32:30;9.00;99.90
31765;DHT22;18338;53.240;8.798;2023-03-19T04:34:58;9.00;99.90
31765;DHT22;18338;53.240;8.798;2023-03-19T04:37:27;9.00;99.90
31765;DHT22;18338;53.240;8.798;2023-03-19T04:39:54;9.10;99.90
31765;DHT22;18338;53.240;8.798;2023-03-19T04:42:21;9.10;99.90
31765;DHT22;18338;53.240;8.798;2023-03-19T04:44:48;9.20;99.90
31765;DHT22;18338;53.240;8.798;2023-03-19T04:47:14;9.10;99.90
31765;DHT22;18338;53.240;8.798;2023-03-19T04:49:42;9.10;99.90
31765;DHT22;18338;53.240;8.798;2023-03-19T04:52:10;9.20;99.90
31765;DHT22;18338;53.240;8.798;2023-03-19T04:54:37;9.20;99.90
31765;DHT22;18338;53.240;8.798;2023-03-19T04:57:05;9.20;99.90
31765;DHT22;18338;53.240;8.798;2023-03-19T04:59:31;9.20;99.90
31765;DHT22;18338;53.240;8.798;2023-03-19T05:01:58;9.20;99.90
31765;DHT22;18338;53.240;8.798;2023-03-19T05:04:24;9.20;99.90
31765;DHT22;18338;53.240;8.798;2023-03-19T05:06:52;9.30;99.90
31765;DHT22;18338;53.240;8.798;2023-03-19T05:09:19;9.30;99.90
31765;DHT22;18338;53.240;8.798;2023-03-19T05:11:46;9.30;99.90
31765;DHT22;18338;53.240;8.798;2023-03-19T05:14:12;9.30;99.90
31765;DHT22;18338;53.240;8.798;2023-03-19T05:16:40;9.30;99.90
31765;DHT22;18338;53.240;8.798;2023-03-19T05:19:07;9.40;99.90
31765;DHT22;18338;53.240;8.798;2023-03-19T05:21:34;9.30;99.90
31765;DHT22;18338;53.240;8.798;2023-03-19T05:24:01;9.30;99.90
31765;DHT22;18338;53.240;8.798;2023-03-19T05:26:27;9.30;99.90
31765;DHT22;18338;53.240;8.798;2023-03-19T05:28:54;9.40;99.90
31765;DHT22;18338;53.240;8.798;2023-03-19T05:31:22;9.30;99.90
31765;DHT22;18338;53.240;8.798;2023-03-19T05:33:49;9.30;99.90
31765;DHT22;18338;53.240;8.798;2023-03-19T05:36:16;9.30;99.90
31765;DHT22;18338;53.240;8.798;2023-03-19T05:38:43;9.20;99.90
31765;DHT22;18338;53.240;8.798;2023-03-19T05:41:10;9.20;99.90
31765;DHT22;18338;53.240;8.798;2023-03-19T05:43:37;9.20;99.90
31765;DHT22;18338;53.240;8.798;2023-03-19T05:46:05;9.20;99.90
31765;DHT22;18338;53.240;8.798;2023-03-19T05:48:32;9.20;99.90
31765;DHT22;18338;53.240;8.798;2023-03-19T05:50:59;9.10;99.90
31765;DHT22;18338;53.240;8.798;2023-03-19T05:53:26;9.10;99.90
31765;DHT22;18338;53.240;8.798;2023-03-19T05:55:53;9.10;99.90
31765;DHT22;18338;53.240;8.798;2023-03-19T05:58:20;9.10;99.90
31765;DHT22;18338;53.240;8.798;2023-03-19T06:00:47;9.10;99.90
31765;DHT22;18338;53.240;8.798;2023-03-19T06:03:17;9.00;99.90
31765;DHT22;18338;53.240;8.798;2023-03-19T06:05:48;8.90;99.90
31765;DHT22;18338;53.240;8.798;2023-03-19T06:08:16;8.80;99.90
31765;DHT22;18338;53.240;8.798;2023-03-19T06:10:42;8.80;99.90
31765;DHT22;18338;53.240;8.798;2023-03-19T06:13:09;8.80;99.90
31765;DHT22;18338;53.240;8.798;2023-03-19T06:15:38;8.80;99.90
31765;DHT22;18338;53.240;8.798;2023-03-19T06:18:05;8.90;99.90
31765;DHT22;18338;53.240;8.798;2023-03-19T06:20:32;9.00;99.90
31765;DHT22;18338;53.240;8.798;2023-03-19T06:22:59;9.20;99.90
31765;DHT22;18338;53.240;8.798;2023-03-19T06:25:26;9.40;99.90
31765;DHT22;18338;53.240;8.798;2023-03-19T06:27:54;9.50;99.90
31765;DHT22;18338;53.240;8.798;2023-03-19T06:30:22;9.60;99.90
31765;DHT22;18338;53.240;8.798;2023-03-19T06:32:48;9.70;99.90
31765;DHT22;18338;53.240;8.798;2023-03-19T06:35:15;9.80;99.90
31765;DHT22;18338;53.240;8.798;2023-03-19T06:37:42;10.00;99.90
31765;DHT22;18338;53.240;8.798;2023-03-19T06:40:10;10.20;99.90
31765;DHT22;18338;53.240;8.798;2023-03-19T06:42:36;10.40;99.90
31765;DHT22;18338;53.240;8.798;2023-03-19T06:45:03;10.40;99.90
31765;DHT22;18338;53.240;8.798;2023-03-19T06:47:30;10.50;99.90
31765;DHT22;18338;53.240;8.798;2023-03-19T06:49:57;10.50;99.90
31765;DHT22;18338;53.240;8.798;2023-03-19T06:52:25;10.70;99.90
31765;DHT22;18338;53.240;8.798;2023-03-19T06:54:53;10.80;99.90
31765;DHT22;18338;53.240;8.798;2023-03-19T06:57:20;10.80;99.90
31765;DHT22;18338;53.240;8.798;2023-03-19T06:59:46;10.90;99.90
31765;DHT22;18338;53.240;8.798;2023-03-19T07:02:13;10.90;99.90
31765;DHT22;18338;53.240;8.798;2023-03-19T07:04:40;11.00;99.90
31765;DHT22;18338;53.240;8.798;2023-03-19T07:07:06;11.20;99.90
31765;DHT22;18338;53.240;8.798;2023-03-19T07:09:33;11.30;99.90
31765;DHT22;18338;53.240;8.798;2023-03-19T07:12:00;11.40;99.90
31765;DHT22;18338;53.240;8.798;2023-03-19T07:14:26;11.60;99.90
31765;DHT22;18338;53.240;8.798;2023-03-19T07:16:53;11.60;99.90
31765;DHT22;18338;53.240;8.798;2023-03-19T07:19:20;11.90;99.90
31765;DHT22;18338;53.240;8.798;2023-03-19T07:21:46;12.20;99.90
31765;DHT22;18338;53.240;8.798;2023-03-19T07:24:13;12.20;99.90
31765;DHT22;18338;53.240;8.798;2023-03-19T07:26:39;12.30;99.90
31765;DHT22;18338;53.240;8.798;2023-03-19T07:29:07;12.50;99.90
31765;DHT22;18338;53.240;8.798;2023-03-19T07:31:35;12.50;99.90
31765;DHT22;18338;53.240;8.798;2023-03-19T07:34:01;12.40;99.90
31765;DHT22;18338;53.240;8.798;2023-03-19T07:36:28;12.50;99.90
31765;DHT22;18338;53.240;8.798;2023-03-19T07:38:55;12.50;99.90
31765;DHT22;18338;53.240;8.798;2023-03-19T07:41:22;12.60;99.90
31765;DHT22;18338;53.240;8.798;2023-03-19T07:43:49;12.70;99.90
31765;DHT22;18338;53.240;8.798;2023-03-19T07:46:16;12.70;99.90
31765;DHT22;18338;53.240;8.798;2023-03-19T07:48:43;12.70;99.90
31765;DHT22;18338;53.240;8.798;2023-03-19T07:51:10;12.70;99.90
31765;DHT22;18338;53.240;8.798;2023-03-19T07:53:37;12.70;99.90
31765;DHT22;18338;53.240;8.798;2023-03-19T07:56:04;12.80;99.90
31765;DHT22;18338;53.240;8.798;2023-03-19T07:58:31;12.90;99.90
31765;DHT22;18338;53.240;8.798;2023-03-19T08:00:58;12.90;99.90
31765;DHT22;18338;53.240;8.798;2023-03-19T08:03:24;13.20;99.90
31765;DHT22;18338;53.240;8.798;2023-03-19T08:05:51;13.40;99.90
31765;DHT22;18338;53.240;8.798;2023-03-19T08:08:19;13.50;99.90
31765;DHT22;18338;53.240;8.798;2023-03-19T08:10:46;13.80;99.90
31765;DHT22;18338;53.240;8.798;2023-03-19T08:13:14;14.20;99.90
31765;DHT22;18338;53.240;8.798;2023-03-19T08:15:41;13.90;99.90
31765;DHT22;18338;53.240;8.798;2023-03-19T08:18:08;13.90;99.90
31765;DHT22;18338;53.240;8.798;2023-03-19T08:20:35;13.80;99.90
31765;DHT22;18338;53.240;8.798;2023-03-19T08:23:02;13.60;99.90
31765;DHT22;18338;53.240;8.798;2023-03-19T08:25:29;13.50;99.90
31765;DHT22;18338;53.240;8.798;2023-03-19T08:27:59;13.70;99.90
31765;DHT22;18338;53.240;8.798;2023-03-19T08:30:26;13.80;99.90
31765;DHT22;18338;53.240;8.798;2023-03-19T08:32:53;13.90;99.90
31765;DHT22;18338;53.240;8.798;2023-03-19T08:35:20;13.90;99.90
31765;DHT22;18338;53.240;8.798;2023-03-19T08:37:47;13.80;99.90
31765;DHT22;18338;53.240;8.798;2023-03-19T08:40:13;14.00;99.90
31765;DHT22;18338;53.240;8.798;2023-03-19T08:42:40;14.20;99.90
31765;DHT22;18338;53.240;8.798;2023-03-19T08:45:11;14.40;99.90
31765;DHT22;18338;53.240;8.798;2023-03-19T08:47:39;14.40;99.90
31765;DHT22;18338;53.240;8.798;2023-03-19T08:50:07;14.40;99.90
31765;DHT22;18338;53.240;8.798;2023-03-19T08:52:34;14.70;99.90
31765;DHT22;18338;53.240;8.798;2023-03-19T08:55:01;14.70;99.90
31765;DHT22;18338;53.240;8.798;2023-03-19T08:57:29;15.10;99.90
31765;DHT22;18338;53.240;8.798;2023-03-19T08:59:56;15.20;99.90
31765;DHT22;18338;53.240;8.798;2023-03-19T09:02:23;15.10;99.90
31765;DHT22;18338;53.240;8.798;2023-03-19T09:04:52;14.90;99.90
31765;DHT22;18338;53.240;8.798;2023-03-19T09:07:19;14.90;99.90
31765;DHT22;18338;53.240;8.798;2023-03-19T09:09:46;15.20;99.90
31765;DHT22;18338;53.240;8.798;2023-03-19T09:12:14;15.10;99.90
31765;DHT22;18338;53.240;8.798;2023-03-19T09:14:42;14.90;99.90
31765;DHT22;18338;53.240;8.798;2023-03-19T09:17:09;14.80;99.90
31765;DHT22;18338;53.240;8.798;2023-03-19T09:19:36;14.60;99.90
31765;DHT22;18338;53.240;8.798;2023-03-19T09:22:03;14.40;99.90
31765;DHT22;18338;53.240;8.798;2023-03-19T09:24:30;14.50;99.90
31765;DHT22;18338;53.240;8.798;2023-03-19T09:26:56;14.50;99.90
31765;DHT22;18338;53.240;8.798;2023-03-19T09:29:23;14.20;99.90
31765;DHT22;18338;53.240;8.798;2023-03-19T09:31:49;14.40;99.90
31765;DHT22;18338;53.240;8.798;2023-03-19T09:34:17;14.60;99.90
31765;DHT22;18338;53.240;8.798;2023-03-19T09:36:48;14.80;99.90
31765;DHT22;18338;53.240;8.798;2023-03-19T09:39:15;14.90;99.90
31765;DHT22;18338;53.240;8.798;2023-03-19T09:42:44;15.20;99.90
31765;DHT22;18338;53.240;8.798;2023-03-19T09:44:43;15.70;99.90
31765;DHT22;18338;53.240;8.798;2023-03-19T09:47:25;15.90;99.90
31765;DHT22;18338;53.240;8.798;2023-03-19T09:49:54;15.90;99.90
31765;DHT22;18338;53.240;8.798;2023-03-19T09:57:43;15.60;99.90
31765;DHT22;18338;53.240;8.798;2023-03-19T10:02:43;15.50;99.90
31765;DHT22;18338;53.240;8.798;2023-03-19T10:05:31;15.50;99.90
31765;DHT22;18338;53.240;8.798;2023-03-19T10:10:50;15.00;99.90
31765;DHT22;18338;53.240;8.798;2023-03-19T10:13:44;15.10;99.90
31765;DHT22;18338;53.240;8.798;2023-03-19T10:16:26;14.90;99.90
31765;DHT22;18338;53.240;8.798;2023-03-19T10:19:00;15.00;99.90
31765;DHT22;18338;53.240;8.798;2023-03-19T10:24:24;15.00;99.90
31765;DHT22;18338;53.240;8.798;2023-03-19T10:26:58;15.30;99.90
31765;DHT22;18338;53.240;8.798;2023-03-19T10:29:26;15.40;99.90
31765;DHT22;18338;53.240;8.798;2023-03-19T10:34:43;16.10;99.90
31765;DHT22;18338;53.240;8.798;2023-03-19T10:39:41;17.10;99.90
31765;DHT22;18338;53.240;8.798;2023-03-19T10:47:41;18.00;99.90
31765;DHT22;18338;53.240;8.798;2023-03-19T10:50:18;18.00;99.90
31765;DHT22;18338;53.240;8.798;2023-03-19T10:52:49;18.40;99.90
31765;DHT22;18338;53.240;8.798;2023-03-19T10:55:23;18.40;99.90
31765;DHT22;18338;53.240;8.798;2023-03-19T11:01:05;18.20;99.90
31765;DHT22;18338;53.240;8.798;2023-03-19T11:03:38;17.70;99.90
31765;DHT22;18338;53.240;8.798;2023-03-19T11:09:13;17.10;99.90
31765;DHT22;18338;53.240;8.798;2023-03-19T11:14:18;16.00;99.90
31765;DHT22;18338;53.240;8.798;2023-03-19T11:16:56;15.80;99.90
31765;DHT22;18338;53.240;8.798;2023-03-19T11:19:31;15.60;99.90
31765;DHT22;18338;53.240;8.798;2023-03-19T11:22:35;15.50;99.90
31765;DHT22;18338;53.240;8.798;2023-03-19T11:31:05;15.50;99.90
31765;DHT22;18338;53.240;8.798;2023-03-19T11:36:12;15.80;99.90
31765;DHT22;18338;53.240;8.798;2023-03-19T11:38:53;15.90;99.90
31765;DHT22;18338;53.240;8.798;2023-03-19T11:42:07;15.90;99.90
31765;DHT22;18338;53.240;8.798;2023-03-19T11:44:34;15.80;99.90
31765;DHT22;18338;53.240;8.798;2023-03-19T11:50:16;15.90;99.90
31765;DHT22;18338;53.240;8.798;2023-03-19T11:53:11;15.70;99.90
31765;DHT22;18338;53.240;8.798;2023-03-19T12:01:16;15.70;99.90
31765;DHT22;18338;53.240;8.798;2023-03-19T12:09:13;15.20;99.90
31765;DHT22;18338;53.240;8.798;2023-03-19T12:20:18;14.30;99.90
31765;DHT22;18338;53.240;8.798;2023-03-19T12:23:21;14.20;99.90
31765;DHT22;18338;53.240;8.798;2023-03-19T12:26:12;14.10;99.90
31765;DHT22;18338;53.240;8.798;2023-03-19T12:28:52;14.00;99.90
31765;DHT22;18338;53.240;8.798;2023-03-19T12:34:32;13.70;99.90
31765;DHT22;18338;53.240;8.798;2023-03-19T12:37:34;13.60;99.90
31765;DHT22;18338;53.240;8.798;2023-03-19T12:40:36;13.60;99.90
31765;DHT22;18338;53.240;8.798;2023-03-19T12:43:33;13.50;99.90
31765;DHT22;18338;53.240;8.798;2023-03-19T12:46:07;13.50;99.90
31765;DHT22;18338;53.240;8.798;2023-03-19T12:48:50;13.30;99.90
31765;DHT22;18338;53.240;8.798;2023-03-19T12:51:22;13.20;99.90
31765;DHT22;18338;53.240;8.798;2023-03-19T12:53:59;13.40;99.90
31765;DHT22;18338;53.240;8.798;2023-03-19T12:56:45;13.90;99.90
31765;DHT22;18338;53.240;8.798;2023-03-19T12:59:36;14.40;99.90
31765;DHT22;18338;53.240;8.798;2023-03-19T13:02:16;15.10;99.90
31765;DHT22;18338;53.240;8.798;2023-03-19T13:08:13;17.10;99.90
31765;DHT22;18338;53.240;8.798;2023-03-19T13:10:48;17.20;99.90
31765;DHT22;18338;53.240;8.798;2023-03-19T13:13:38;17.10;99.90
31765;DHT22;18338;53.240;8.798;2023-03-19T13:19:38;16.80;99.90
31765;DHT22;18338;53.240;8.798;2023-03-19T13:22:25;16.50;99.90
31765;DHT22;18338;53.240;8.798;2023-03-19T13:25:00;16.20;99.90
31765;DHT22;18338;53.240;8.798;2023-03-19T13:27:59;16.20;99.90
31765;DHT22;18338;53.240;8.798;2023-03-19T13:30:36;16.60;99.90
31765;DHT22;18338;53.240;8.798;2023-03-19T13:33:34;19.60;99.90
31765;DHT22;18338;53.240;8.798;2023-03-19T13:36:11;22.90;99.90
31765;DHT22;18338;53.240;8.798;2023-03-19T13:38:58;24.50;99.90
31765;DHT22;18338;53.240;8.798;2023-03-19T13:47:36;26.10;95.10
31765;DHT22;18338;53.240;8.798;2023-03-19T13:50:25;25.60;94.80
31765;DHT22;18338;53.240;8.798;2023-03-19T13:55:51;23.20;97.20
31765;DHT22;18338;53.240;8.798;2023-03-19T13:58:50;21.70;99.90
31765;DHT22;18338;53.240;8.798;2023-03-19T14:04:19;19.50;99.90
31765;DHT22;18338;53.240;8.798;2023-03-19T14:07:23;18.70;99.90
31765;DHT22;18338;53.240;8.798;2023-03-19T14:12:39;18.20;99.90
31765;DHT22;18338;53.240;8.798;2023-03-19T14:17:53;19.60;99.90
31765;DHT22;18338;53.240;8.798;2023-03-19T14:20:44;19.90;99.90
31765;DHT22;18338;53.240;8.798;2023-03-19T14:23:23;21.40;99.90
31765;DHT22;18338;53.240;8.798;2023-03-19T14:26:27;21.40;99.90
31765;DHT22;18338;53.240;8.798;2023-03-19T14:31:56;17.90;99.90
31765;DHT22;18338;53.240;8.798;2023-03-19T14:34:42;17.30;99.90
31765;DHT22;18338;53.240;8.798;2023-03-19T14:37:48;16.90;99.90
31765;DHT22;18338;53.240;8.798;2023-03-19T14:40:49;16.70;99.90
31765;DHT22;18338;53.240;8.798;2023-03-19T14:52:42;19.10;99.90
31765;DHT22;18338;53.240;8.798;2023-03-19T14:55:14;21.20;99.90
31765;DHT22;18338;53.240;8.798;2023-03-19T14:57:45;21.20;99.90
31765;DHT22;18338;53.240;8.798;2023-03-19T15:00:21;21.70;99.90
31765;DHT22;18338;53.240;8.798;2023-03-19T15:02:54;22.60;99.90
31765;DHT22;18338;53.240;8.798;2023-03-19T15:05:28;22.60;98.70
31765;DHT22;18338;53.240;8.798;2023-03-19T15:08:00;22.00;99.30
31765;DHT22;18338;53.240;8.798;2023-03-19T15:19:27;22.60;96.80
31765;DHT22;18338;53.240;8.798;2023-03-19T15:24:48;20.50;99.90
31765;DHT22;18338;53.240;8.798;2023-03-19T15:27:28;19.50;99.90
31765;DHT22;18338;53.240;8.798;2023-03-19T15:30:24;19.90;99.90
31765;DHT22;18338;53.240;8.798;2023-03-19T15:32:55;20.00;99.90
31765;DHT22;18338;53.240;8.798;2023-03-19T15:35:46;19.20;99.90
31765;DHT22;18338;53.240;8.798;2023-03-19T15:38:17;18.60;99.90
31765;DHT22;18338;53.240;8.798;2023-03-19T15:40:57;19.30;99.90
31765;DHT22;18338;53.240;8.798;2023-03-19T15:43:33;19.50;99.90
31765;DHT22;18338;53.240;8.798;2023-03-19T15:46:04;19.40;99.90
31765;DHT22;18338;53.240;8.798;2023-03-19T15:48:43;19.80;99.90
31765;DHT22;18338;53.240;8.798;2023-03-19T15:51:18;20.00;99.90
31765;DHT22;18338;53.240;8.798;2023-03-19T15:53:49;19.30;99.90
31765;DHT22;18338;53.240;8.798;2023-03-19T15:56:17;19.60;99.90
31765;DHT22;18338;53.240;8.798;2023-03-19T15:58:47;19.90;99.90
31765;DHT22;18338;53.240;8.798;2023-03-19T16:01:18;19.00;99.90
31765;DHT22;18338;53.240;8.798;2023-03-19T16:03:52;18.60;99.90
31765;DHT22;18338;53.240;8.798;2023-03-19T16:06:30;19.00;99.90
31765;DHT22;18338;53.240;8.798;2023-03-19T16:11:41;19.00;99.90
31765;DHT22;18338;53.240;8.798;2023-03-19T16:16:45;18.20;99.90
31765;DHT22;18338;53.240;8.798;2023-03-19T16:22:00;17.80;99.90
31765;DHT22;18338;53.240;8.798;2023-03-19T16:24:31;17.80;99.90
31765;DHT22;18338;53.240;8.798;2023-03-19T16:27:03;18.20;99.90
31765;DHT22;18338;53.240;8.798;2023-03-19T16:29:45;18.10;99.90
31765;DHT22;18338;53.240;8.798;2023-03-19T16:32:41;17.60;99.90
31765;DHT22;18338;53.240;8.798;2023-03-19T16:35:12;17.00;99.90
31765;DHT22;18338;53.240;8.798;2023-03-19T16:37:47;16.30;99.90
31765;DHT22;18338;53.240;8.798;2023-03-19T16:42:47;15.30;99.90
31765;DHT22;18338;53.240;8.798;2023-03-19T16:45:19;14.90;99.90
31765;DHT22;18338;53.240;8.798;2023-03-19T16:47:49;14.70;99.90
31765;DHT22;18338;53.240;8.798;2023-03-19T16:50:35;14.50;99.90
31765;DHT22;18338;53.240;8.798;2023-03-19T16:53:20;14.20;99.90
31765;DHT22;18338;53.240;8.798;2023-03-19T16:55:50;14.10;99.90
31765;DHT22;18338;53.240;8.798;2023-03-19T16:58:33;13.90;99.90
31765;DHT22;18338;53.240;8.798;2023-03-19T17:01:12;13.70;99.90
31765;DHT22;18338;53.240;8.798;2023-03-19T17:03:42;13.60;99.90
31765;DHT22;18338;53.240;8.798;2023-03-19T17:06:11;13.40;99.90
31765;DHT22;18338;53.240;8.798;2023-03-19T17:08:45;13.30;99.90
31765;DHT22;18338;53.240;8.798;2023-03-19T17:11:24;13.20;99.90
31765;DHT22;18338;53.240;8.798;2023-03-19T17:13:53;12.90;99.90
31765;DHT22;18338;53.240;8.798;2023-03-19T17:16:22;12.80;99.90
31765;DHT22;18338;53.240;8.798;2023-03-19T17:18:49;12.60;99.90
31765;DHT22;18338;53.240;8.798;2023-03-19T17:21:25;12.50;99.90
31765;DHT22;18338;53.240;8.798;2023-03-19T17:23:53;12.40;99.90
31765;DHT22;18338;53.240;8.798;2023-03-19T17:26:25;12.20;99.90
31765;DHT22;18338;53.240;8.798;2023-03-19T17:28:54;12.10;99.90
31765;DHT22;18338;53.240;8.798;2023-03-19T17:31:27;11.90;99.90
31765;DHT22;18338;53.240;8.798;2023-03-19T17:34:08;11.70;99.90
31765;DHT22;18338;53.240;8.798;2023-03-19T17:36:36;11.60;99.90
31765;DHT22;18338;53.240;8.798;2023-03-19T17:39:03;11.50;99.90
31765;DHT22;18338;53.240;8.798;2023-03-19T17:41:31;11.40;99.90
31765;DHT22;18338;53.240;8.798;2023-03-19T17:44:05;11.40;99.90
31765;DHT22;18338;53.240;8.798;2023-03-19T17:46:41;11.20;99.90
31765;DHT22;18338;53.240;8.798;2023-03-19T17:49:28;11.00;99.90
31765;DHT22;18338;53.240;8.798;2023-03-19T17:51:59;10.90;99.90
31765;DHT22;18338;53.240;8.798;2023-03-19T17:54:26;10.70;99.90
31765;DHT22;18338;53.240;8.798;2023-03-19T17:56:54;10.60;99.90
31765;DHT22;18338;53.240;8.798;2023-03-19T17:59:24;10.40;99.90
31765;DHT22;18338;53.240;8.798;2023-03-19T18:01:51;10.40;99.90
31765;DHT22;18338;53.240;8.798;2023-03-19T18:04:22;10.30;99.90
31765;DHT22;18338;53.240;8.798;2023-03-19T18:06:52;10.20;99.90
31765;DHT22;18338;53.240;8.798;2023-03-19T18:09:26;10.10;99.90
31765;DHT22;18338;53.240;8.798;2023-03-19T18:11:58;10.00;99.90
31765;DHT22;18338;53.240;8.798;2023-03-19T18:14:24;9.90;99.90